Time;durP1;ratioP1;P1;durP2;ratioP2;P2;SDS_P1;SDS_P2;PMS_P1;PMS_P2;Temp;Humidity;BMP_temperature;BMP_pressure;BME280_temperature;BME280_humidity;BME280_pressure;Samples;Min_cycle;Max_cycle;Signal;HPM_P1;HPM_P2
2021/06/21 00:00:25;;;;;;;10.67;9.60;;;;;;;21.36;68.33;98303.45;125024;1093;64423;-87
2021/06/21 00:03:12;;;;;;;10.65;9.55;;;;;;;21.30;68.22;98294.20;125148;1092;64299;-87
2021/06/21 00:05:39;;;;;;;10.03;9.07;;;;;;;21.29;68.36;98297.09;125096;1093;64371;-86
2021/06/21 00:08:07;;;;;;;9.80;8.80;;;;;;;21.26;68.28;98292.89;125136;1093;64838;-87
2021/06/21 00:10:35;;;;;;;9.97;9.07;;;;;;;21.23;68.71;98288.69;125187;1093;64207;-85
2021/06/21 00:13:02;;;;;;;10.83;9.73;;;;;;;21.23;68.70;98279.72;125075;1093;64370;-86
2021/06/21 00:15:30;;;;;;;9.87;9.07;;;;;;;21.20;68.57;98286.35;125143;1093;64406;-87
2021/06/21 00:17:57;;;;;;;11.20;10.07;;;;;;;21.18;69.27;98287.57;125151;1093;64264;-88
2021/06/21 00:20:26;;;;;;;10.93;10.00;;;;;;;21.15;68.69;98280.66;125108;1092;64245;-87
2021/06/21 00:22:55;;;;;;;10.40;9.07;;;;;;;21.11;68.85;98275.79;125213;1093;64211;-87
2021/06/21 00:25:24;;;;;;;9.93;8.90;;;;;;;21.07;69.07;98282.63;125162;1093;64113;-86
2021/06/21 00:27:52;;;;;;;9.43;8.53;;;;;;;21.01;69.35;98278.77;125213;1093;64242;-87
2021/06/21 00:30:20;;;;;;;9.33;8.50;;;;;;;20.99;69.39;98280.85;125150;1093;64187;-87
2021/06/21 00:32:49;;;;;;;9.37;8.50;;;;;;;20.97;69.74;98267.48;125245;1093;64242;-87
2021/06/21 00:35:17;;;;;;;9.70;8.73;;;;;;;20.97;69.71;98274.77;125163;1093;64200;-87
2021/06/21 00:37:45;;;;;;;10.00;9.10;;;;;;;20.94;69.49;98267.86;125139;1093;64255;-86
2021/06/21 00:40:14;;;;;;;9.77;8.97;;;;;;;20.91;69.61;98265.53;125150;1093;64393;-87
2021/06/21 00:42:45;;;;;;;10.70;9.63;;;;;;;20.89;69.92;98266.74;125019;1093;64309;-87
2021/06/21 00:45:16;;;;;;;10.10;9.07;;;;;;;20.85;69.94;98260.84;125220;1092;64191;-87
2021/06/21 00:47:44;;;;;;;10.10;9.20;;;;;;;20.81;70.27;98262.25;125151;1091;64191;-88
2021/06/21 00:50:11;;;;;;;8.90;8.20;;;;;;;20.78;70.33;98255.34;125124;1093;64271;-88
2021/06/21 00:52:40;;;;;;;9.83;8.60;;;;;;;20.74;70.02;98254.02;125176;1091;64264;-87
2021/06/21 00:55:08;;;;;;;9.63;8.63;;;;;;;20.70;70.12;98244.60;125176;1093;64737;-87
2021/06/21 00:57:37;;;;;;;11.83;8.77;;;;;;;20.68;70.23;98254.77;125070;1093;64213;-88
2021/06/21 01:00:13;;;;;;;9.37;8.57;;;;;;;20.66;70.56;98248.69;125217;1093;64283;-87
2021/06/21 01:02:41;;;;;;;10.93;10.00;;;;;;;20.65;70.27;98247.02;125108;1093;64348;-86
2021/06/21 01:05:10;;;;;;;10.67;9.70;;;;;;;20.63;70.76;98248.23;125145;1093;64693;-86
2021/06/21 01:07:39;;;;;;;10.83;9.87;;;;;;;20.57;70.85;98245.23;125124;1092;64287;-86
2021/06/21 01:10:08;;;;;;;11.17;10.17;;;;;;;20.54;70.85;98244.78;125190;1093;64351;-86
2021/06/21 01:12:48;;;;;;;10.63;9.73;;;;;;;20.50;71.40;98240.71;125202;1093;64290;-88
2021/06/21 01:15:19;;;;;;;10.48;9.15;;;;;;;20.44;71.18;98242.30;125116;1093;64405;-87
2021/06/21 01:17:56;;;;;;;9.33;8.60;;;;;;;20.42;71.54;98233.51;125134;1093;64217;-86
2021/06/21 01:20:42;;;;;;;9.50;8.50;;;;;;;20.41;71.92;98231.00;125120;1093;64265;-87
2021/06/21 01:23:28;;;;;;;11.17;8.97;;;;;;;20.39;71.82;98225.77;125153;1092;64268;-87
2021/06/21 01:26:08;;;;;;;10.87;9.77;;;;;;;20.39;71.77;98229.30;125117;1092;64309;-87
2021/06/21 01:29:09;;;;;;;13.10;10.35;;;;;;;20.39;71.90;98229.30;125107;1093;64245;-88
2021/06/21 01:32:13;;;;;;;10.80;9.90;;;;;;;20.38;71.85;98233.05;125121;1093;64399;-87
2021/06/21 01:34:47;;;;;;;11.53;10.63;;;;;;;20.35;71.46;98224.44;125108;1093;64374;-87
2021/06/21 01:37:17;;;;;;;11.67;10.53;;;;;;;20.29;71.65;98226.02;125131;1093;64273;-87
2021/06/21 01:39:48;;;;;;;10.93;10.03;;;;;;;20.25;71.61;98216.60;124991;1093;64374;-85
2021/06/21 01:42:20;;;;;;;11.10;10.00;;;;;;;20.20;71.91;98224.42;125160;1093;64399;-86
2021/06/21 01:44:55;;;;;;;10.97;9.97;;;;;;;20.14;72.21;98217.02;125195;1093;64293;-87
2021/06/21 01:47:23;;;;;;;11.33;10.00;;;;;;;20.09;71.95;98217.59;125077;1093;64150;-88
2021/06/21 01:49:52;;;;;;;11.00;10.00;;;;;;;20.06;72.11;98217.93;125147;1093;64268;-86
2021/06/21 01:52:21;;;;;;;9.60;8.80;;;;;;;20.02;72.62;98210.38;125117;1092;64188;-87
2021/06/21 01:54:55;;;;;;;11.10;10.20;;;;;;;19.98;72.25;98207.19;125087;1093;64436;-87
2021/06/21 01:57:28;;;;;;;11.80;10.70;;;;;;;19.94;72.33;98208.59;125190;1093;64968;-87
2021/06/21 01:59:56;;;;;;;11.63;10.63;;;;;;;19.93;72.90;98205.05;125176;1093;64316;-88
2021/06/21 02:02:25;;;;;;;12.40;11.17;;;;;;;19.90;72.73;98201.84;125148;1093;64261;-87
2021/06/21 02:04:55;;;;;;;13.23;12.00;;;;;;;19.91;73.35;98211.66;125188;1093;64284;-87
2021/06/21 02:07:24;;;;;;;10.47;9.67;;;;;;;19.89;72.90;98197.47;125123;1093;64421;-87
2021/06/21 02:09:54;;;;;;;10.80;9.73;;;;;;;19.87;73.21;98196.80;125147;1093;64377;-87
2021/06/21 02:12:24;;;;;;;11.60;10.40;;;;;;;19.86;73.54;98200.55;125213;1093;64181;-87
2021/06/21 02:14:52;;;;;;;;;;;;;;;19.87;73.61;98194.94;125280;1093;64216;-87
2021/06/21 02:17:25;;;;;;;11.10;10.20;;;;;;;19.90;73.89;98199.14;125204;1093;64281;-87
2021/06/21 02:19:57;;;;;;;11.55;10.45;;;;;;;19.91;73.89;98190.02;125117;1093;64268;-89
2021/06/21 02:22:26;;;;;;;11.20;10.10;;;;;;;19.91;74.09;98188.16;125129;1093;64377;-87
2021/06/21 02:24:55;;;;;;;;;;;;;;;19.92;74.12;98197.11;125212;1093;64485;-88
2021/06/21 02:27:23;;;;;;;13.47;9.70;;;;;;;19.91;74.18;98193.56;125317;1093;64214;-87
2021/06/21 02:29:52;;;;;;;12.67;10.33;;;;;;;19.97;74.28;98199.27;125363;1093;64188;-87
2021/06/21 02:32:20;;;;;;;11.77;10.57;;;;;;;19.98;74.58;98190.95;125374;1092;64321;-87
2021/06/21 02:34:50;;;;;;;10.87;9.93;;;;;;;19.99;74.80;98189.12;125436;1093;64265;-87
2021/06/21 02:37:18;;;;;;;10.60;9.57;;;;;;;20.02;74.65;98186.88;125315;1093;64364;-87
2021/06/21 02:39:45;;;;;;;10.73;9.83;;;;;;;20.04;75.05;98192.12;125045;1093;64271;-86
2021/06/21 02:42:13;;;;;;;12.40;11.30;;;;;;;20.06;74.57;98193.59;125174;1093;64309;-86
2021/06/21 02:44:40;;;;;;;12.77;11.43;;;;;;;20.09;74.67;98195.95;125126;1093;64252;-87
2021/06/21 02:47:08;;;;;;;12.27;11.07;;;;;;;20.11;74.45;98195.75;125172;1093;64188;-88
2021/06/21 02:49:36;;;;;;;11.53;10.63;;;;;;;20.13;74.67;98193.71;125176;1093;64380;-88
2021/06/21 02:52:15;;;;;;;11.37;10.37;;;;;;;20.16;74.72;98194.17;125188;1093;64220;-87
2021/06/21 02:55:06;;;;;;;11.83;10.80;;;;;;;20.18;74.59;98197.54;125108;1093;64236;-87
2021/06/21 02:57:45;;;;;;;11.43;10.43;;;;;;;20.24;74.81;98195.96;125100;1093;64303;-86
2021/06/21 03:00:14;;;;;;;10.77;9.73;;;;;;;20.29;74.83;98192.71;125124;1093;64283;-87
2021/06/21 03:02:43;;;;;;;11.20;9.43;;;;;;;20.33;74.83;98192.16;125084;1093;64287;-88
2021/06/21 03:05:11;;;;;;;9.83;8.80;;;;;;;20.37;74.64;98192.63;125135;1093;64226;-88
2021/06/21 03:07:41;;;;;;;10.57;9.50;;;;;;;20.42;74.39;98192.91;125094;1093;64284;-86
2021/06/21 03:10:12;;;;;;;10.37;9.37;;;;;;;20.47;74.88;98192.36;125122;1093;64271;-88
2021/06/21 03:12:44;;;;;;;12.23;10.73;;;;;;;20.52;74.65;98201.61;125135;1093;64412;-87
2021/06/21 03:15:15;;;;;;;11.93;10.70;;;;;;;20.58;74.31;98200.88;125145;1093;64364;-87
2021/06/21 03:17:43;;;;;;;11.23;10.13;;;;;;;20.67;74.41;98198.95;125174;1093;64382;-87
2021/06/21 03:20:12;;;;;;;12.23;10.97;;;;;;;20.75;74.16;98200.72;125120;1093;64360;-88
2021/06/21 03:22:43;;;;;;;12.87;11.47;;;;;;;20.84;74.20;98199.58;125119;1093;64769;-88
2021/06/21 03:25:12;;;;;;;11.80;10.70;;;;;;;20.93;73.94;98189.48;125178;1093;64300;-88
2021/06/21 03:27:39;;;;;;;11.63;10.37;;;;;;;20.97;73.74;98197.05;125121;1093;64275;-87
2021/06/21 03:30:11;;;;;;;13.20;10.33;;;;;;;21.51;72.81;98189.57;125159;1093;64354;-87
2021/06/21 03:32:43;;;;;;;10.10;9.20;;;;;;;22.52;71.55;98182.97;125200;1093;64244;-88
2021/06/21 03:35:12;;;;;;;10.17;9.17;;;;;;;23.35;69.32;98185.68;125186;1093;64338;-88
2021/06/21 03:37:42;;;;;;;10.03;8.83;;;;;;;23.97;67.96;98182.92;125187;1092;64386;-86
2021/06/21 03:40:11;;;;;;;17.53;10.00;;;;;;;24.65;66.68;98188.97;125075;1093;64325;-87
2021/06/21 03:42:39;;;;;;;9.73;8.80;;;;;;;25.27;64.93;98186.69;125220;1093;64276;-87
2021/06/21 03:45:09;;;;;;;12.67;9.17;;;;;;;25.63;63.54;98171.60;125186;1092;64182;-87
2021/06/21 03:47:37;;;;;;;10.27;9.27;;;;;;;25.94;62.54;98178.16;125180;1093;64367;-88
2021/06/21 03:50:07;;;;;;;9.55;8.65;;;;;;;26.27;61.79;98173.23;125180;1093;64296;-87
2021/06/21 03:52:34;;;;;;;11.73;8.63;;;;;;;26.74;60.61;98183.74;125096;1093;64334;-88
2021/06/21 03:55:06;;;;;;;9.30;8.40;;;;;;;27.15;59.55;98187.70;125316;1093;64265;-87
2021/06/21 03:57:47;;;;;;;9.10;8.25;;;;;;;27.60;58.19;98172.84;125290;1093;64274;-87
2021/06/21 04:00:20;;;;;;;8.63;7.83;;;;;;;27.93;56.93;98183.30;125464;1093;64364;-86
2021/06/21 04:02:48;;;;;;;9.57;8.60;;;;;;;28.12;55.88;98179.43;125328;1093;64361;-88
2021/06/21 04:05:15;;;;;;;8.80;8.00;;;;;;;28.31;55.35;98182.91;125169;1093;64242;-88
2021/06/21 04:07:44;;;;;;;11.33;8.73;;;;;;;28.71;54.35;98178.64;125148;1093;64252;-87
2021/06/21 04:10:18;;;;;;;9.43;8.60;;;;;;;29.09;54.70;98183.61;125084;1093;64315;-86
2021/06/21 04:12:47;;;;;;;11.33;8.70;;;;;;;29.49;53.08;98182.75;125139;1093;64271;-86
2021/06/21 04:15:16;;;;;;;9.95;8.05;;;;;;;29.83;52.42;98185.63;125145;1092;64290;-86
2021/06/21 04:17:43;;;;;;;7.63;6.93;;;;;;;29.97;50.95;98178.75;125232;1092;64276;-88
2021/06/21 04:20:17;;;;;;;9.03;8.17;;;;;;;30.05;50.46;98189.33;125129;1093;64255;-88
2021/06/21 04:22:46;;;;;;;9.70;7.23;;;;;;;30.07;50.42;98189.92;125216;1093;64772;-87
2021/06/21 04:25:15;;;;;;;8.13;7.33;;;;;;;30.27;49.24;98194.94;125094;1093;64267;-86
2021/06/21 04:27:42;;;;;;;;;;;;;;;30.52;48.51;98188.20;125177;1093;64197;-87
2021/06/21 04:30:13;;;;;;;8.57;7.77;;;;;;;30.45;48.71;98198.53;125154;1093;64795;-87
2021/06/21 04:32:41;;;;;;;9.23;7.13;;;;;;;30.67;48.30;98196.66;125104;1093;64394;-87
2021/06/21 04:35:12;;;;;;;10.40;7.70;;;;;;;30.91;47.20;98199.23;125093;1092;64284;-87
2021/06/21 04:37:40;;;;;;;8.00;6.80;;;;;;;31.09;46.40;98204.43;125181;1093;64268;-88
2021/06/21 04:40:10;;;;;;;9.43;7.53;;;;;;;31.10;46.44;98205.25;125158;1092;64412;-88
2021/06/21 04:42:38;;;;;;;8.73;7.23;;;;;;;31.19;46.28;98206.48;125111;1093;64287;-87
2021/06/21 04:45:06;;;;;;;8.23;7.17;;;;;;;31.38;45.64;98201.52;125163;1093;64328;-88
2021/06/21 04:47:33;;;;;;;8.90;6.80;;;;;;;31.49;45.11;98201.40;125168;1092;64268;-87
2021/06/21 04:50:03;;;;;;;9.33;7.43;;;;;;;31.57;45.19;98194.61;125181;1092;64155;-89
2021/06/21 04:52:36;;;;;;;8.05;7.35;;;;;;;31.63;44.69;98201.82;125119;1094;64412;-86
2021/06/21 04:55:05;;;;;;;7.83;7.13;;;;;;;31.56;43.81;98194.84;124968;1093;64271;-88
2021/06/21 04:57:34;;;;;;;11.93;7.30;;;;;;;31.47;44.10;98188.98;125248;1093;64404;-87
2021/06/21 05:00:05;;;;;;;7.70;6.93;;;;;;;31.25;44.19;98187.05;124986;1093;64280;-88
2021/06/21 05:02:33;;;;;;;10.87;6.97;;;;;;;31.18;43.95;98199.33;125154;1092;64322;-88
2021/06/21 05:05:00;;;;;;;9.10;6.75;;;;;;;31.20;44.15;98194.38;125106;1093;64210;-87
2021/06/21 05:07:28;;;;;;;8.20;6.80;;;;;;;31.27;43.82;98195.03;125187;1093;64281;-87
2021/06/21 05:09:55;;;;;;;6.77;6.17;;;;;;;31.47;44.08;98194.48;125160;1093;64286;-88
2021/06/21 05:12:22;;;;;;;9.90;7.00;;;;;;;31.76;43.99;98195.08;125113;1092;64189;-89
2021/06/21 05:14:50;;;;;;;7.33;6.73;;;;;;;31.92;43.50;98188.65;125169;1093;64296;-88
2021/06/21 05:17:17;;;;;;;6.90;6.00;;;;;;;32.12;43.55;98189.91;125242;1092;64348;-88
2021/06/21 05:19:44;;;;;;;7.90;7.10;;;;;;;32.38;43.06;98201.17;125076;1093;64298;-87
2021/06/21 05:22:12;;;;;;;8.70;6.50;;;;;;;32.52;42.62;98199.67;125104;1093;64268;-88
2021/06/21 05:24:39;;;;;;;8.50;6.23;;;;;;;32.63;42.54;98200.57;125195;1093;64301;-88
2021/06/21 05:27:07;;;;;;;10.73;7.20;;;;;;;32.77;41.95;98196.23;125130;1093;64306;-88
2021/06/21 05:29:34;;;;;;;7.57;6.83;;;;;;;32.53;40.85;98206.84;125204;1093;64405;-87
2021/06/21 05:32:02;;;;;;;10.17;6.67;;;;;;;32.15;41.23;98208.72;125191;1093;64450;-87
2021/06/21 05:34:30;;;;;;;10.50;6.53;;;;;;;32.00;41.20;98200.30;125198;1093;64293;-87
2021/06/21 05:36:57;;;;;;;8.27;5.97;;;;;;;31.93;41.48;98206.84;125174;1093;64265;-88
2021/06/21 05:39:25;;;;;;;6.60;5.90;;;;;;;32.02;41.76;98211.88;125187;1093;64351;-88
2021/06/21 05:41:53;;;;;;;9.37;6.40;;;;;;;31.91;41.88;98216.42;125199;1093;64533;-89
2021/06/21 05:44:20;;;;;;;8.80;6.73;;;;;;;32.01;41.78;98221.25;125167;1092;64191;-88
2021/06/21 05:46:47;;;;;;;9.10;6.90;;;;;;;32.07;41.80;98231.22;125158;1093;64287;-88
2021/06/21 05:49:15;;;;;;;10.73;7.40;;;;;;;32.17;41.91;98234.08;125059;1093;64291;-89
2021/06/21 05:51:42;;;;;;;9.47;6.60;;;;;;;32.32;41.69;98233.39;125107;1093;64191;-89
2021/06/21 05:54:09;;;;;;;8.27;6.53;;;;;;;32.55;41.78;98241.34;125199;1093;64338;-88
2021/06/21 05:56:37;;;;;;;9.20;6.73;;;;;;;32.79;41.70;98233.51;125031;1093;64258;-87
2021/06/21 05:59:04;;;;;;;9.03;7.37;;;;;;;32.77;41.10;98227.41;125166;1092;64268;-87
2021/06/21 06:01:31;;;;;;;8.37;6.60;;;;;;;32.72;41.31;98226.55;124988;1093;64233;-89
2021/06/21 06:03:59;;;;;;;9.73;7.10;;;;;;;32.77;40.69;98232.11;125046;1092;64289;-89
2021/06/21 06:06:26;;;;;;;8.47;7.10;;;;;;;32.62;41.02;98227.30;125198;1093;64240;-88
2021/06/21 06:08:54;;;;;;;10.07;7.77;;;;;;;32.69;40.83;98230.67;125121;1092;64393;-89
2021/06/21 06:11:21;;;;;;;10.93;6.70;;;;;;;32.78;40.94;98229.09;125183;1093;64332;-89
2021/06/21 06:13:48;;;;;;;12.67;7.20;;;;;;;32.73;40.40;98231.82;125166;1093;64263;-87
2021/06/21 06:16:15;;;;;;;11.33;7.30;;;;;;;32.69;40.27;98227.91;125139;1093;64287;-87
2021/06/21 06:18:44;;;;;;;8.43;7.07;;;;;;;32.60;40.77;98224.00;125160;1092;64249;-88
2021/06/21 06:21:13;;;;;;;8.25;7.45;;;;;;;32.66;40.85;98225.69;125140;1091;64280;-88
2021/06/21 06:23:40;;;;;;;12.05;7.28;;;;;;;32.73;40.55;98226.30;125153;1093;64199;-87
2021/06/21 06:26:08;;;;;;;13.43;6.87;;;;;;;32.83;40.76;98222.76;125201;1093;64204;-88
2021/06/21 06:28:38;;;;;;;10.63;7.23;;;;;;;32.89;40.61;98224.47;125141;1092;64405;-87
2021/06/21 06:31:07;;;;;;;9.20;6.53;;;;;;;32.88;40.36;98213.69;125128;1093;64289;-87
2021/06/21 06:33:34;;;;;;;8.20;5.90;;;;;;;32.83;40.01;98210.89;125176;1092;64363;-87
2021/06/21 06:36:01;;;;;;;10.23;5.73;;;;;;;32.76;39.95;98211.97;125224;1092;64390;-82
2021/06/21 06:38:50;;;;;;;9.05;6.05;;;;;;;32.66;40.22;98211.89;125420;1093;64287;-89
2021/06/21 06:41:18;;;;;;;11.00;6.17;;;;;;;32.73;39.77;98214.41;125126;1091;64477;-86
2021/06/21 06:43:45;;;;;;;9.67;6.57;;;;;;;32.69;39.92;98214.12;125298;1093;64364;-85
2021/06/21 06:46:13;;;;;;;9.87;6.30;;;;;;;32.66;40.21;98214.66;125253;1093;64353;-83
2021/06/21 06:48:41;;;;;;;9.17;6.50;;;;;;;32.76;40.32;98211.14;125298;1093;64187;-82
2021/06/21 06:51:08;;;;;;;9.80;6.00;;;;;;;32.70;39.99;98210.28;125131;1093;64456;-81
2021/06/21 06:53:46;;;;;;;10.97;6.50;;;;;;;32.61;40.14;98216.55;125347;1093;64242;-90
2021/06/21 06:59:00;;;;;;;9.63;5.27;;;;;;;32.16;40.23;98202.09;125187;1093;64281;-85
2021/06/21 07:01:28;;;;;;;6.37;5.67;;;;;;;32.39;40.90;98202.81;125147;1093;64271;-86
2021/06/21 07:03:56;;;;;;;8.90;5.93;;;;;;;32.56;40.55;98206.30;125143;1093;64297;-85
2021/06/21 07:06:23;;;;;;;6.37;5.70;;;;;;;32.61;40.80;98200.82;125123;1093;64156;-86
2021/06/21 07:08:51;;;;;;;12.00;6.63;;;;;;;32.76;41.32;98203.69;125190;1093;64265;-85
2021/06/21 07:11:20;;;;;;;8.95;6.30;;;;;;;32.79;40.99;98197.63;125006;1093;64302;-85
2021/06/21 07:13:47;;;;;;;;;;;;;;;32.68;40.76;98200.61;125263;1093;64198;-85
2021/06/21 07:16:15;;;;;;;8.20;5.70;;;;;;;32.50;40.87;98202.68;125199;1093;64220;-85
2021/06/21 07:18:42;;;;;;;7.90;5.90;;;;;;;32.48;41.00;98199.34;125039;1092;64220;-85
2021/06/21 07:21:10;;;;;;;12.47;6.07;;;;;;;32.44;40.58;98202.86;125258;1093;64284;-85
2021/06/21 07:23:37;;;;;;;11.90;6.70;;;;;;;32.38;40.91;98204.75;125192;1092;64297;-85
2021/06/21 07:26:06;;;;;;;11.50;6.27;;;;;;;32.26;40.60;98199.43;125074;1093;64345;-86
2021/06/21 07:28:34;;;;;;;7.80;6.55;;;;;;;32.06;41.02;98207.52;125066;1093;64248;-84
2021/06/21 07:31:04;;;;;;;6.70;5.83;;;;;;;32.04;41.59;98204.18;125209;1093;64259;-85
2021/06/21 07:33:31;;;;;;;8.23;6.17;;;;;;;31.85;41.47;98210.03;125204;1093;64335;-85
2021/06/21 07:35:59;;;;;;;10.20;6.40;;;;;;;31.47;41.93;98205.50;125062;1093;64293;-86
2021/06/21 07:38:27;;;;;;;8.40;6.77;;;;;;;31.28;43.36;98204.94;125040;1093;64268;-85
2021/06/21 07:40:55;;;;;;;8.83;6.67;;;;;;;31.17;43.53;98211.41;125135;1093;64310;-84
2021/06/21 07:43:22;;;;;;;8.63;6.90;;;;;;;31.15;43.94;98210.83;125129;1093;64337;-85
2021/06/21 07:45:50;;;;;;;8.10;6.87;;;;;;;31.11;43.83;98207.77;125104;1093;64422;-85
2021/06/21 07:48:18;;;;;;;9.47;6.77;;;;;;;31.08;43.68;98210.20;125103;1093;64312;-86
2021/06/21 07:50:45;;;;;;;10.65;6.95;;;;;;;30.97;43.67;98207.31;125035;1093;64213;-86
2021/06/21 07:53:13;;;;;;;10.85;6.80;;;;;;;30.82;44.20;98199.66;125120;1093;64271;-85
2021/06/21 07:55:42;;;;;;;8.40;7.17;;;;;;;30.87;44.64;98209.92;125089;1093;64252;-84
2021/06/21 07:58:09;;;;;;;13.45;6.35;;;;;;;30.93;44.40;98206.14;124957;1091;64622;-85
2021/06/21 08:00:40;;;;;;;7.45;5.75;;;;;;;31.08;45.02;98215.71;125132;1093;64275;-85
2021/06/21 08:03:11;;;;;;;8.90;7.23;;;;;;;31.12;44.30;98217.67;125118;1092;64210;-84
2021/06/21 08:05:42;;;;;;;8.77;6.80;;;;;;;31.05;44.33;98211.55;125078;1092;64276;-85
2021/06/21 08:08:10;;;;;;;7.60;6.80;;;;;;;30.86;44.11;98213.77;125071;1093;64302;-84
2021/06/21 08:10:37;;;;;;;9.55;7.60;;;;;;;30.73;44.15;98217.67;125112;1093;64297;-85
2021/06/21 08:13:04;;;;;;;7.17;6.47;;;;;;;30.54;44.28;98214.34;125120;1093;64370;-85
2021/06/21 08:15:32;;;;;;;8.50;7.03;;;;;;;30.50;44.49;98215.11;125025;1091;64271;-86
2021/06/21 08:17:59;;;;;;;9.40;6.70;;;;;;;30.43;44.43;98215.27;125146;1092;64245;-85
2021/06/21 08:20:27;;;;;;;8.97;6.40;;;;;;;30.47;45.26;98210.12;125148;1092;64332;-85
2021/06/21 08:22:54;;;;;;;9.80;6.55;;;;;;;30.58;45.07;98211.94;125161;1093;64497;-85
2021/06/21 08:25:21;;;;;;;10.13;6.73;;;;;;;30.59;44.84;98211.66;125108;1091;64271;-84
2021/06/21 08:27:49;;;;;;;11.53;6.70;;;;;;;30.55;45.02;98196.77;125086;1093;64262;-86
2021/06/21 08:30:17;;;;;;;8.07;7.23;;;;;;;30.65;45.15;98203.49;125055;1092;64242;-84
2021/06/21 08:32:45;;;;;;;7.27;5.13;;;;;;;30.66;44.32;98202.42;125109;1093;64300;-83
2021/06/21 08:35:13;;;;;;;6.83;5.80;;;;;;;30.68;44.16;98197.52;125367;1093;64271;-81
2021/06/21 08:37:40;;;;;;;6.57;5.93;;;;;;;30.74;44.54;98190.99;125104;1093;64367;-84
2021/06/21 08:40:09;;;;;;;14.03;6.60;;;;;;;30.84;44.49;98200.25;125187;1093;64204;-86
2021/06/21 08:42:37;;;;;;;8.90;6.78;;;;;;;30.96;44.54;98197.38;125285;1093;64287;-84
2021/06/21 08:45:07;;;;;;;6.10;5.60;;;;;;;30.94;43.94;98194.06;125118;1093;64287;-84
2021/06/21 08:47:35;;;;;;;8.40;5.95;;;;;;;31.06;43.88;98193.94;125054;1093;65024;-87
2021/06/21 08:50:08;;;;;;;6.87;5.47;;;;;;;31.15;43.94;98203.43;125089;1093;64290;-80
2021/06/21 08:52:37;;;;;;;6.30;5.67;;;;;;;31.30;43.40;98200.02;125094;1093;64261;-80
2021/06/21 08:55:06;;;;;;;9.00;5.87;;;;;;;31.44;43.69;98195.00;125151;1093;64217;-80
2021/06/21 08:57:35;;;;;;;6.10;5.50;;;;;;;31.60;43.50;98198.77;125146;1093;64655;-81
2021/06/21 09:00:04;;;;;;;;;;;;;;;31.64;42.62;98197.14;125094;1093;64191;-79
2021/06/21 09:02:33;;;;;;;6.30;5.70;;;;;;;31.78;43.15;98201.16;125008;1093;64235;-80
2021/06/21 09:05:02;;;;;;;8.53;5.80;;;;;;;31.79;42.67;98200.06;125131;1093;64380;-80
2021/06/21 09:07:29;;;;;;;6.93;5.73;;;;;;;31.80;42.16;98195.38;125046;1093;64268;-80
2021/06/21 09:09:59;;;;;;;6.20;5.40;;;;;;;31.84;41.95;98193.78;125057;1093;64283;-79
2021/06/21 09:12:27;;;;;;;;;;;;;;;31.92;41.69;98188.65;125139;1093;64249;-79
2021/06/21 09:14:56;;;;;;;5.93;5.40;;;;;;;31.93;41.61;98179.27;125013;1093;64287;-79
2021/06/21 09:17:27;;;;;;;5.23;4.83;;;;;;;32.00;41.78;98181.83;125114;1092;64224;-80
2021/06/21 09:19:58;;;;;;;8.13;5.77;;;;;;;32.10;41.22;98175.59;125141;1092;64188;-79
2021/06/21 09:22:38;;;;;;;5.80;5.40;;;;;;;31.99;40.74;98173.81;124995;1093;64438;-80
2021/06/21 09:25:10;;;;;;;6.63;6.03;;;;;;;31.90;40.76;98177.02;124998;1093;64386;-79
2021/06/21 09:27:40;;;;;;;9.00;6.10;;;;;;;31.87;41.03;98168.45;125013;1093;64245;-80
2021/06/21 09:30:11;;;;;;;7.30;5.53;;;;;;;31.93;41.02;98161.91;125018;1093;64156;-80
2021/06/21 09:32:44;;;;;;;7.40;6.13;;;;;;;31.92;40.84;98169.36;125000;1093;64267;-81
2021/06/21 09:35:32;;;;;;;6.40;5.80;;;;;;;32.02;41.42;98170.53;124915;1093;64453;-81
2021/06/21 09:38:05;;;;;;;5.67;5.03;;;;;;;32.17;41.21;98167.08;125013;1092;64271;-80
2021/06/21 09:40:35;;;;;;;7.07;5.80;;;;;;;32.22;41.39;98178.16;125033;1093;64210;-80
2021/06/21 09:43:24;;;;;;;6.13;5.63;;;;;;;32.35;41.55;98174.95;125207;1093;64255;-80
2021/06/21 09:46:05;;;;;;;8.63;6.37;;;;;;;32.47;40.87;98178.39;125021;1093;64312;-80
2021/06/21 09:48:39;;;;;;;7.27;6.57;;;;;;;32.44;40.43;98176.13;125042;1093;64295;-79
2021/06/21 09:51:27;;;;;;;7.45;6.85;;;;;;;32.47;40.94;98166.50;125081;1092;64427;-80
2021/06/21 09:53:56;;;;;;;7.80;7.00;;;;;;;32.57;40.89;98163.81;124995;1093;64191;-82
2021/06/21 09:56:45;;;;;;;7.95;6.85;;;;;;;32.61;40.21;98170.48;124969;1093;64281;-80
2021/06/21 09:59:18;;;;;;;;;;;;;;;32.57;40.54;98164.67;125004;1093;64216;-81
2021/06/21 10:02:00;;;;;;;7.67;6.07;;;;;;;32.60;41.03;98157.79;125025;1092;64155;-80
2021/06/21 10:04:28;;;;;;;7.80;7.00;;;;;;;32.64;40.23;98150.63;125000;1092;64306;-80
2021/06/21 10:06:55;;;;;;;6.43;5.83;;;;;;;32.60;40.16;98145.90;125047;1093;64336;-80
2021/06/21 10:09:25;;;;;;;6.80;6.20;;;;;;;32.64;40.03;98139.59;124954;1092;64277;-80
2021/06/21 10:11:53;;;;;;;7.50;6.67;;;;;;;32.75;39.93;98143.23;125080;1093;64310;-80
2021/06/21 10:14:23;;;;;;;7.47;6.77;;;;;;;32.76;39.64;98153.19;125014;1093;64367;-80
2021/06/21 10:16:51;;;;;;;11.60;6.90;;;;;;;32.84;40.06;98149.09;125098;1093;64776;-80
2021/06/21 10:19:19;;;;;;;8.15;6.15;;;;;;;32.98;40.38;98144.73;125065;1093;64328;-80
2021/06/21 10:21:55;;;;;;;9.23;6.65;;;;;;;33.05;40.19;98147.30;125086;1093;64197;-80
2021/06/21 10:24:30;;;;;;;6.77;6.17;;;;;;;33.08;40.26;98138.47;125022;1093;64293;-80
2021/06/21 10:27:02;;;;;;;8.83;6.90;;;;;;;33.05;38.81;98139.84;124974;1093;64294;-80
2021/06/21 10:29:31;;;;;;;10.50;8.13;;;;;;;32.94;38.81;98129.80;125070;1092;64408;-80
2021/06/21 10:32:00;;;;;;;6.30;5.80;;;;;;;32.94;39.89;98125.13;125047;1093;64319;-80
2021/06/21 10:34:28;;;;;;;8.07;7.07;;;;;;;33.06;39.67;98135.14;125102;1093;64319;-81
2021/06/21 10:36:57;;;;;;;7.47;6.93;;;;;;;33.18;39.62;98127.47;125011;1093;64370;-80
2021/06/21 10:39:32;;;;;;;7.15;6.45;;;;;;;33.21;38.68;98137.97;125024;1093;64301;-80
2021/06/21 10:42:06;;;;;;;8.23;7.50;;;;;;;33.19;38.03;98129.11;125085;1091;64316;-79
2021/06/21 10:44:41;;;;;;;7.97;7.23;;;;;;;33.03;37.39;98128.23;125100;1093;64293;-79
2021/06/21 10:47:39;;;;;;;10.07;6.83;;;;;;;32.94;37.89;98125.13;125162;1092;64293;-79
2021/06/21 10:50:11;;;;;;;8.43;7.37;;;;;;;32.92;37.75;98123.73;125047;1093;64293;-79
2021/06/21 10:52:49;;;;;;;8.00;7.37;;;;;;;32.85;37.39;98121.20;125097;1093;64798;-80
2021/06/21 10:55:26;;;;;;;8.03;7.30;;;;;;;32.82;37.85;98110.72;125062;1092;64303;-79
2021/06/21 10:58:04;;;;;;;7.97;7.17;;;;;;;32.92;38.06;98113.52;125062;1092;64280;-80
2021/06/21 11:00:37;;;;;;;7.67;6.97;;;;;;;33.05;37.13;98111.41;125067;1093;64191;-80
2021/06/21 11:03:33;;;;;;;7.97;7.30;;;;;;;33.08;38.05;98108.09;124984;1093;64191;-80
2021/06/21 11:06:08;;;;;;;8.57;6.60;;;;;;;33.14;38.32;98107.00;124963;1093;64367;-80
2021/06/21 11:08:46;;;;;;;7.37;6.57;;;;;;;33.27;38.82;98108.43;125085;1093;64306;-80
2021/06/21 11:11:41;;;;;;;7.60;7.00;;;;;;;33.29;37.90;98098.77;125113;1093;64156;-80
2021/06/21 11:14:16;;;;;;;8.57;7.87;;;;;;;33.29;37.26;98096.01;125052;1092;64271;-79
2021/06/21 11:16:47;;;;;;;10.03;8.30;;;;;;;33.28;37.35;98087.98;124982;1093;64260;-80
2021/06/21 11:19:21;;;;;;;7.60;6.90;;;;;;;33.38;38.28;98088.83;125064;1093;64272;-80
2021/06/21 11:21:54;;;;;;;8.00;7.30;;;;;;;33.59;38.26;98086.14;125078;1093;64267;-79
2021/06/21 11:24:38;;;;;;;8.50;7.70;;;;;;;33.74;37.81;98079.80;125045;1093;64276;-79
2021/06/21 11:27:11;;;;;;;7.00;6.40;;;;;;;33.72;37.64;98076.48;125079;1093;64406;-80
2021/06/21 11:29:44;;;;;;;8.33;7.73;;;;;;;33.75;37.40;98067.63;125019;1093;64271;-80
2021/06/21 11:32:12;;;;;;;7.40;6.70;;;;;;;33.82;37.71;98079.25;125070;1091;64255;-78
2021/06/21 11:34:50;;;;;;;7.53;6.60;;;;;;;33.91;37.59;98083.11;125080;1093;64271;-80
2021/06/21 11:37:39;;;;;;;8.20;7.40;;;;;;;33.91;36.74;98091.40;125024;1093;64306;-79
2021/06/21 11:40:12;;;;;;;7.90;7.10;;;;;;;33.84;36.49;98079.81;125037;1093;64279;-80